createdAt,value
2017-02-02T13:58:16.399Z,36
2017-02-02T13:59:25.077Z,720
2017-02-02T14:00:33.780Z,1432
2017-02-02T14:01:42.495Z,2232
2017-02-02T14:02:51.705Z,2968
2017-02-02T14:04:00.403Z,2256
2017-02-02T14:05:09.118Z,1112
2017-02-02T14:06:17.816Z,2224
2017-02-02T14:07:26.874Z,1664
2017-02-02T14:08:35.664Z,2180
2017-02-02T14:09:44.564Z,2148
2017-02-02T14:10:54.159Z,2132
2017-02-02T14:12:04.093Z,2184
2017-02-02T14:13:13.200Z,2160
2017-02-02T14:14:22.333Z,2136
2017-02-02T14:15:31.530Z,2116
2017-02-02T14:16:40.619Z,2088
2017-02-02T14:17:49.341Z,2064
2017-02-02T14:18:58.045Z,2032
2017-02-02T14:20:06.732Z,2000
2017-02-02T14:21:15.457Z,1972
2017-02-02T14:22:24.570Z,1948
2017-02-02T14:23:33.662Z,1912
2017-02-02T14:24:42.368Z,1884
2017-02-02T14:25:51.071Z,1856
2017-02-02T14:26:59.777Z,1824
2017-02-02T14:28:08.480Z,1792
2017-02-02T14:29:17.574Z,1756
2017-02-02T14:30:26.690Z,1720
2017-02-02T14:31:35.399Z,1696
2017-02-02T14:32:44.342Z,1672
2017-02-02T14:33:53.050Z,1648
2017-02-02T14:35:01.767Z,1628
2017-02-02T14:36:11.301Z,1596
2017-02-02T14:37:20.001Z,1580
2017-02-02T14:38:28.745Z,1564
2017-02-02T14:39:37.437Z,1536
2017-02-02T14:40:46.148Z,1516
2017-02-02T14:41:54.852Z,1488
2017-02-02T14:43:03.958Z,1456
2017-02-02T14:44:12.670Z,1428
2017-02-02T14:45:21.362Z,1404
2017-02-02T14:46:30.068Z,1380
2017-02-02T14:47:39.181Z,1364
2017-02-02T14:48:47.880Z,1340
2017-02-02T14:49:57.365Z,1324
2017-02-02T14:51:06.083Z,1308
2017-02-02T14:52:14.781Z,1292
2017-02-02T14:53:23.477Z,1280
2017-02-02T14:54:32.185Z,1268
2017-02-02T14:55:40.885Z,1252
2017-02-02T14:56:49.984Z,1240
2017-02-02T14:57:58.690Z,1232
2017-02-02T14:59:07.792Z,1216
2017-02-02T15:00:16.479Z,1196
2017-02-02T15:01:25.196Z,1180
2017-02-02T15:02:33.905Z,1168
2017-02-02T15:03:43.388Z,1148
2017-02-02T15:04:52.494Z,1120
2017-02-02T15:06:01.215Z,1092
2017-02-02T15:07:09.909Z,1060
2017-02-02T15:08:19.003Z,1040
2017-02-02T15:09:27.714Z,1016
2017-02-02T15:10:36.802Z,992
2017-02-02T15:11:45.513Z,968
2017-02-02T15:12:54.203Z,948
2017-02-02T15:14:02.913Z,932
2017-02-02T15:15:11.626Z,908
2017-02-02T15:16:20.312Z,884
2017-02-02T15:17:29.007Z,864
2017-02-02T15:18:37.721Z,844
2017-02-02T15:19:46.405Z,820
2017-02-02T15:20:55.093Z,792
2017-02-02T15:22:03.810Z,768
2017-02-02T15:23:13.001Z,748
2017-02-02T15:24:22.510Z,728
2017-02-02T15:25:31.250Z,708
2017-02-02T15:26:39.946Z,692
2017-02-02T15:27:48.660Z,672
2017-02-02T15:28:58.140Z,656
2017-02-02T15:30:06.842Z,632
2017-02-02T15:31:15.550Z,608
2017-02-02T15:32:24.641Z,588
2017-02-02T15:33:33.331Z,564
2017-02-02T15:34:42.051Z,540
2017-02-02T15:35:51.570Z,520
2017-02-02T15:37:00.650Z,496
2017-02-02T15:38:09.364Z,476
2017-02-02T15:39:18.064Z,452
2017-02-02T15:40:27.174Z,428
2017-02-02T15:41:36.293Z,408
2017-02-02T15:42:45.019Z,388
2017-02-02T15:43:54.130Z,364
2017-02-02T15:45:02.836Z,340
2017-02-02T15:46:11.532Z,320
2017-02-02T15:47:20.243Z,300
2017-02-02T15:48:28.958Z,280
2017-02-02T15:49:37.641Z,268
2017-02-02T15:50:46.341Z,260
2017-02-02T15:51:55.052Z,252
2017-02-02T15:53:03.751Z,244
2017-02-02T15:54:12.456Z,240
2017-02-02T15:55:21.160Z,232
2017-02-02T15:56:29.869Z,220
2017-02-02T15:57:38.578Z,212
2017-02-02T15:58:47.671Z,200
2017-02-02T15:59:56.372Z,196
2017-02-02T16:01:05.092Z,188
2017-02-02T16:02:14.169Z,184
2017-02-02T16:03:23.255Z,176
2017-02-02T16:04:31.969Z,168
2017-02-02T16:05:40.667Z,156
2017-02-02T16:06:49.764Z,144
2017-02-02T16:07:58.884Z,132
2017-02-02T16:09:08.381Z,128
2017-02-02T16:10:17.085Z,120
2017-02-02T16:11:25.780Z,112
2017-02-02T16:12:34.485Z,104
2017-02-02T16:13:43.200Z,96
2017-02-02T16:14:51.885Z,92
2017-02-02T16:16:00.583Z,84
2017-02-02T16:17:09.703Z,80
2017-02-02T16:18:18.408Z,76
2017-02-02T16:19:27.095Z,72
2017-02-02T16:20:36.197Z,64
2017-02-02T16:21:45.289Z,60
2017-02-02T16:22:53.974Z,52
2017-02-02T16:24:02.680Z,48
2017-02-02T16:25:11.773Z,44
2017-02-02T16:26:20.480Z,40
2017-02-02T16:27:29.172Z,36
2017-02-02T16:28:37.861Z,32
2017-02-02T16:29:46.972Z,28
2017-02-02T16:30:55.715Z,24
2017-02-02T16:32:04.795Z,20
2017-02-02T16:33:13.901Z,16
2017-02-02T16:34:22.611Z,16
2017-02-02T16:35:31.310Z,16
2017-02-02T16:36:40.012Z,12
2017-02-02T16:37:49.115Z,12
2017-02-02T16:38:58.201Z,8
2017-02-02T16:40:07.292Z,8
2017-02-02T16:41:15.985Z,8
2017-02-02T16:42:24.695Z,4
2017-02-02T16:43:33.409Z,4
2017-02-02T16:44:42.093Z,4
2017-02-02T16:45:51.195Z,0
2017-02-02T16:46:59.913Z,4
2017-02-02T16:48:09.007Z,4
2017-02-02T16:49:17.707Z,0
2017-02-02T16:50:26.440Z,0
2017-02-02T16:51:35.526Z,0
2017-02-02T16:52:44.225Z,0
2017-02-02T16:53:53.320Z,0
2017-02-02T16:55:02.025Z,0
2017-02-02T16:56:11.118Z,0
2017-02-02T16:57:19.832Z,0
2017-02-02T16:58:28.935Z,0
2017-02-02T16:59:38.009Z,0
2017-02-02T17:00:46.725Z,0
2017-02-02T17:01:55.434Z,0
2017-02-02T17:03:04.523Z,0
2017-02-02T17:04:13.630Z,0
2017-02-02T17:05:22.347Z,0
2017-02-02T17:06:31.031Z,0
2017-02-02T17:07:39.725Z,0
2017-02-02T17:08:48.431Z,0
2017-02-02T17:09:57.530Z,0
2017-02-02T17:11:06.237Z,0
2017-02-02T17:12:14.929Z,0
2017-02-02T17:13:23.635Z,0
2017-02-02T17:14:32.357Z,0
2017-02-02T17:15:41.040Z,0
2017-02-02T17:16:49.735Z,0
2017-02-02T17:17:58.445Z,0
2017-02-02T17:19:07.141Z,0
2017-02-02T17:20:15.835Z,0
2017-02-02T17:21:24.944Z,0
2017-02-02T17:22:33.640Z,0
2017-02-02T17:23:42.345Z,0
2017-02-02T17:24:51.431Z,0
2017-02-02T17:26:00.137Z,0
2017-02-02T17:27:08.845Z,0
2017-02-02T17:28:17.540Z,0
2017-02-02T17:29:26.221Z,0
2017-02-02T17:30:34.945Z,0
2017-02-02T17:31:44.035Z,0
2017-02-02T17:32:52.725Z,0
2017-02-02T17:34:01.446Z,0
2017-02-02T17:35:10.550Z,0
2017-02-02T17:36:20.034Z,0
2017-02-02T17:37:29.143Z,0
2017-02-02T17:38:37.847Z,0
2017-02-02T17:39:46.557Z,0
2017-02-02T17:40:55.255Z,0
2017-02-02T17:42:04.341Z,0
2017-02-02T17:43:13.056Z,0
2017-02-02T17:44:21.761Z,0
2017-02-02T17:45:30.448Z,0
2017-02-02T17:46:39.155Z,0
2017-02-02T17:47:47.855Z,0
2017-02-02T17:48:56.546Z,0
2017-02-02T17:50:05.244Z,0
2017-02-02T17:51:13.952Z,0
2017-02-02T17:52:23.041Z,0
2017-02-02T17:53:31.742Z,0
2017-02-02T17:54:40.448Z,0
2017-02-02T17:55:49.137Z,0
2017-02-02T17:56:57.842Z,0
2017-02-02T17:58:06.958Z,0
2017-02-02T17:59:15.654Z,0
2017-02-02T18:00:24.733Z,0
2017-02-02T18:01:33.447Z,0
2017-02-02T18:02:42.154Z,0
2017-02-02T18:03:50.843Z,0
2017-02-02T18:04:59.547Z,0
2017-02-02T18:06:08.258Z,0
2017-02-02T18:07:16.956Z,0
2017-02-02T18:08:25.651Z,0
2017-02-02T18:09:34.743Z,0
2017-02-02T18:10:43.847Z,0
2017-02-02T18:11:52.555Z,0
2017-02-02T18:13:01.240Z,0
2017-02-02T18:14:09.949Z,0
2017-02-02T18:15:18.654Z,0
2017-02-02T18:16:27.350Z,0
2017-02-02T18:17:36.062Z,0
2017-02-02T18:18:45.169Z,0
2017-02-02T18:19:53.857Z,0
2017-02-02T18:21:02.555Z,0
2017-02-02T18:22:11.665Z,0
2017-02-02T18:23:20.761Z,0
2017-02-02T18:24:29.466Z,0
2017-02-02T18:25:38.157Z,0
2017-02-02T18:26:46.861Z,0
2017-02-02T18:27:55.608Z,0
2017-02-02T18:29:04.294Z,0
2017-02-02T18:30:13.404Z,0
2017-02-02T18:31:22.107Z,0
2017-02-02T18:32:31.203Z,0
2017-02-02T18:33:39.895Z,0
2017-02-02T18:34:48.602Z,0
2017-02-02T18:35:57.299Z,0
2017-02-02T18:37:06.396Z,0
2017-02-02T18:38:15.089Z,0
2017-02-02T18:39:23.791Z,0
2017-02-02T18:40:32.907Z,0
2017-02-02T18:41:41.599Z,0
2017-02-02T18:42:50.283Z,0
2017-02-02T18:43:59.390Z,0
2017-02-02T18:45:08.086Z,0
2017-02-02T18:46:16.773Z,0
2017-02-02T18:47:25.481Z,0
2017-02-02T18:48:34.183Z,0
2017-02-02T18:49:42.872Z,0
2017-02-02T18:50:51.573Z,0
2017-02-02T18:52:00.282Z,0
2017-02-02T18:53:08.970Z,0
2017-02-02T18:54:17.679Z,0
2017-02-02T18:55:27.179Z,0
2017-02-02T18:56:36.257Z,0
2017-02-02T18:57:44.960Z,0
2017-02-02T18:58:54.071Z,0
2017-02-02T19:00:02.758Z,0
2017-02-02T19:01:11.443Z,0
2017-02-02T19:02:20.553Z,0
2017-02-02T19:03:29.249Z,0
2017-02-02T19:04:37.935Z,0
2017-02-02T19:05:46.647Z,0
2017-02-02T19:06:55.747Z,0
2017-02-02T19:08:04.466Z,0
2017-02-02T19:09:13.561Z,0
2017-02-02T19:10:23.044Z,0
2017-02-02T19:11:31.760Z,0
2017-02-02T19:12:40.458Z,0
2017-02-02T19:13:49.148Z,0
2017-02-02T19:14:58.259Z,0
2017-02-02T19:16:07.367Z,0
2017-02-02T19:17:16.053Z,0
2017-02-02T19:18:24.765Z,0
2017-02-02T19:19:33.476Z,0
2017-02-02T19:20:42.168Z,0
2017-02-02T19:21:50.871Z,0
2017-02-02T19:22:59.565Z,0
2017-02-02T19:24:08.681Z,0
2017-02-02T19:25:17.398Z,0
2017-02-02T19:26:26.080Z,0
2017-02-02T19:27:34.806Z,0
2017-02-02T19:28:43.511Z,0
2017-02-02T19:29:52.205Z,0
2017-02-02T19:31:01.309Z,0
2017-02-02T19:32:10.038Z,0
2017-02-02T19:33:18.738Z,0
2017-02-02T19:34:27.435Z,0
2017-02-02T19:35:36.138Z,0
2017-02-02T19:36:44.853Z,0
2017-02-02T19:37:53.559Z,0
2017-02-02T19:39:02.253Z,0
2017-02-02T19:40:11.353Z,0
2017-02-02T19:41:20.085Z,0
2017-02-02T19:42:29.170Z,0
2017-02-02T19:43:38.262Z,0
2017-02-02T19:44:46.978Z,0
2017-02-02T19:45:56.071Z,0
2017-02-02T19:47:04.766Z,0
2017-02-02T19:48:13.486Z,0
2017-02-02T19:49:22.188Z,0
2017-02-02T19:50:30.901Z,0
2017-02-02T19:51:39.593Z,0
2017-02-02T19:52:48.700Z,0
2017-02-02T19:53:57.923Z,0
2017-02-02T19:55:07.061Z,0
2017-02-02T19:56:15.756Z,0
2017-02-02T19:57:24.465Z,0
2017-02-02T19:58:33.168Z,0
2017-02-02T19:59:41.851Z,0
2017-02-02T20:00:50.575Z,0
2017-02-02T20:01:59.340Z,0
2017-02-02T20:03:08.039Z,0
2017-02-02T20:04:16.778Z,0
2017-02-02T20:05:25.471Z,0
2017-02-02T20:06:34.233Z,0
2017-02-02T20:07:42.932Z,0
2017-02-02T20:08:51.614Z,0
2017-02-02T20:10:00.728Z,0
2017-02-02T20:11:09.432Z,0
2017-02-02T20:12:18.181Z,0
2017-02-02T20:13:27.311Z,0
2017-02-02T20:14:36.099Z,0
2017-02-02T20:15:44.880Z,0
2017-02-02T20:16:54.015Z,0
2017-02-02T20:18:02.757Z,0
2017-02-02T20:19:11.582Z,0
2017-02-02T20:20:20.473Z,0
2017-02-02T20:21:29.316Z,0
2017-02-02T20:22:38.093Z,0
2017-02-02T20:23:46.833Z,0
2017-02-02T20:24:55.581Z,0
2017-02-02T20:26:04.710Z,0
2017-02-02T20:27:13.435Z,0
2017-02-02T20:28:22.124Z,0
2017-02-02T20:29:30.903Z,0
2017-02-02T20:30:40.062Z,0
2017-02-02T20:31:50.008Z,0
2017-02-02T20:32:59.253Z,0
2017-02-02T20:34:08.061Z,0
2017-02-02T20:35:16.911Z,0
2017-02-02T20:36:25.752Z,0
2017-02-02T20:37:34.631Z,0
2017-02-02T20:38:43.933Z,0
2017-02-02T20:39:53.235Z,0
2017-02-02T20:41:02.120Z,0
2017-02-02T20:42:10.921Z,0
2017-02-02T20:43:19.786Z,0
2017-02-02T20:44:28.955Z,0
2017-02-02T20:45:38.087Z,0
2017-02-02T20:46:46.838Z,0
2017-02-02T20:47:55.647Z,0
2017-02-02T20:49:04.374Z,0
2017-02-02T20:50:13.564Z,0
2017-02-02T20:51:22.339Z,0
2017-02-02T20:52:31.176Z,0
2017-02-02T20:53:40.906Z,0
2017-02-02T20:54:49.804Z,0
2017-02-02T20:55:58.611Z,0
2017-02-02T20:57:07.809Z,0
2017-02-02T20:58:17.079Z,0
2017-02-02T20:59:25.929Z,0
2017-02-02T21:00:34.802Z,0
2017-02-02T21:01:43.658Z,0
2017-02-02T21:02:52.406Z,0
2017-02-02T21:04:01.157Z,0
2017-02-02T21:05:09.921Z,0
2017-02-02T21:06:18.816Z,0
2017-02-02T21:07:27.646Z,0
2017-02-02T21:08:36.509Z,0
2017-02-02T21:09:45.805Z,0
2017-02-02T21:10:55.076Z,0
2017-02-02T21:12:03.931Z,0
2017-02-02T21:13:13.207Z,0
2017-02-02T21:14:22.071Z,0
2017-02-02T21:15:31.306Z,0
2017-02-02T21:16:40.586Z,0
2017-02-02T21:17:49.799Z,0
2017-02-02T21:18:58.592Z,0
2017-02-02T21:20:07.786Z,0
2017-02-02T21:21:16.494Z,0
2017-02-02T21:22:25.255Z,0
2017-02-02T21:23:34.057Z,0
2017-02-02T21:24:43.669Z,0
2017-02-02T21:25:52.527Z,0
2017-02-02T21:27:01.822Z,0
2017-02-02T21:28:11.076Z,0
2017-02-02T21:29:20.327Z,0
2017-02-02T21:30:29.144Z,0
2017-02-02T21:31:38.005Z,0
2017-02-02T21:32:46.770Z,0
2017-02-02T21:33:55.486Z,0
2017-02-02T21:35:04.621Z,0
2017-02-02T21:36:13.332Z,0
2017-02-02T21:37:22.442Z,0
2017-02-02T21:38:31.159Z,0
2017-02-02T21:39:39.863Z,0
2017-02-02T21:40:48.977Z,0
2017-02-02T21:41:57.659Z,0
2017-02-02T21:43:06.377Z,0
2017-02-02T21:44:15.140Z,0
2017-02-02T21:45:23.884Z,0
2017-02-02T21:46:32.598Z,0
2017-02-02T21:47:42.514Z,0
2017-02-02T21:48:51.235Z,0
2017-02-02T21:50:00.399Z,0
2017-02-02T21:51:09.081Z,0
2017-02-02T21:52:18.585Z,0
2017-02-02T21:53:27.291Z,0
2017-02-02T21:54:35.989Z,0
2017-02-02T21:55:44.676Z,0
2017-02-02T21:56:54.197Z,0
2017-02-02T21:58:02.917Z,0
2017-02-02T21:59:12.438Z,0
2017-02-02T22:00:21.189Z,0
2017-02-02T22:01:29.884Z,0
2017-02-02T22:02:38.661Z,0
2017-02-02T22:03:47.392Z,0
2017-02-02T22:04:56.081Z,0
2017-02-02T22:06:04.794Z,0
2017-02-02T22:07:13.491Z,0
2017-02-02T22:08:22.581Z,0
2017-02-02T22:09:31.289Z,0
2017-02-02T22:10:40.020Z,0
2017-02-02T22:11:48.714Z,0
2017-02-02T22:12:57.818Z,0
2017-02-02T22:14:06.525Z,0
2017-02-02T22:15:15.223Z,0
2017-02-02T22:16:23.928Z,0
2017-02-02T22:17:32.617Z,0
2017-02-02T22:18:41.330Z,0
2017-02-02T22:19:50.031Z,0
2017-02-02T22:20:58.722Z,0
2017-02-02T22:22:07.827Z,0
2017-02-02T22:23:16.919Z,0
2017-02-02T22:24:26.036Z,0
2017-02-02T22:25:34.732Z,0
2017-02-02T22:26:43.445Z,0
2017-02-02T22:27:52.139Z,0
2017-02-02T22:29:00.837Z,0
2017-02-02T22:30:09.943Z,0
2017-02-02T22:31:19.034Z,0
2017-02-02T22:32:27.742Z,0
2017-02-02T22:33:36.418Z,0
2017-02-02T22:34:45.120Z,0
2017-02-02T22:35:53.821Z,0
2017-02-02T22:37:02.519Z,0
2017-02-02T22:38:11.217Z,0
2017-02-02T22:39:19.923Z,0
2017-02-02T22:40:28.616Z,0
2017-02-02T22:41:37.701Z,0
2017-02-02T22:42:46.410Z,0
2017-02-02T22:43:55.119Z,0
2017-02-02T22:45:03.816Z,0
2017-02-02T22:46:12.515Z,0
2017-02-02T22:47:21.615Z,0
2017-02-02T22:48:30.290Z,0
2017-02-02T22:49:39.399Z,0
2017-02-02T22:50:48.095Z,0
2017-02-02T22:51:56.784Z,0
2017-02-02T22:53:05.490Z,0
2017-02-02T22:54:14.196Z,0
2017-02-02T22:55:22.884Z,0
2017-02-02T22:56:31.570Z,0
2017-02-02T22:57:40.685Z,0
2017-02-02T22:58:49.369Z,0
2017-02-02T22:59:58.462Z,0
2017-02-02T23:01:07.155Z,0
2017-02-02T23:02:15.847Z,0
2017-02-02T23:03:24.961Z,0
2017-02-02T23:04:39.565Z,0
2017-02-02T23:05:48.660Z,0
2017-02-02T23:06:57.362Z,0
2017-02-02T23:08:06.840Z,0
2017-02-02T23:09:15.917Z,0
2017-02-02T23:10:24.633Z,0
2017-02-02T23:11:33.722Z,0
2017-02-02T23:12:42.415Z,0
2017-02-02T23:13:51.140Z,0
2017-02-02T23:14:59.843Z,0
2017-02-02T23:16:08.547Z,0
2017-02-02T23:17:17.643Z,0
2017-02-02T23:18:26.327Z,0
2017-02-02T23:19:35.039Z,0
2017-02-02T23:20:44.922Z,0
2017-02-02T23:21:54.003Z,0
2017-02-02T23:23:03.501Z,0
2017-02-02T23:24:12.200Z,0
2017-02-02T23:25:21.277Z,0
2017-02-02T23:26:29.982Z,0
2017-02-02T23:27:38.690Z,0
2017-02-02T23:28:47.372Z,0
2017-02-02T23:29:56.466Z,0
2017-02-02T23:31:05.956Z,0
2017-02-02T23:32:15.068Z,0
2017-02-02T23:33:24.162Z,0
2017-02-02T23:34:32.850Z,0
2017-02-02T23:35:41.548Z,0
2017-02-02T23:36:50.652Z,0
2017-02-02T23:38:00.133Z,0
2017-02-02T23:39:08.830Z,0
2017-02-02T23:40:17.545Z,0
2017-02-02T23:41:26.612Z,0
2017-02-02T23:42:35.302Z,0
2017-02-02T23:43:44.010Z,0
2017-02-02T23:44:52.703Z,0
2017-02-02T23:46:01.800Z,0
2017-02-02T23:47:10.490Z,0
2017-02-02T23:48:19.189Z,0
2017-02-02T23:49:27.892Z,0
2017-02-02T23:50:36.572Z,0
2017-02-02T23:51:45.256Z,0
2017-02-02T23:52:53.964Z,0
2017-02-02T23:54:02.655Z,0
2017-02-02T23:55:11.346Z,0
2017-02-02T23:56:20.043Z,0
2017-02-02T23:57:28.739Z,0
2017-02-02T23:58:37.420Z,0
2017-02-02T23:59:46.119Z,0
